Time;durP1;ratioP1;P1;durP2;ratioP2;P2;SDS_P1;SDS_P2;PMS_P1;PMS_P2;Temp;Humidity;BMP_temperature;BMP_pressure;BME280_temperature;BME280_humidity;BME280_pressure;Samples;Min_cycle;Max_cycle;Signal;HPM_P1;HPM_P2
2023/08/13 00:01:24;;;;;;;7.15;2.55;;;;;;;19.30;63.45;101620.25;5049481;28;20029;-67
2023/08/13 00:03:49;;;;;;;6.60;2.40;;;;;;;19.22;62.08;101625.25;5054805;28;20086;-67
2023/08/13 00:06:14;;;;;;;5.93;2.50;;;;;;;19.26;63.08;101627.66;5048196;28;20025;-67
2023/08/13 00:08:40;;;;;;;6.90;2.25;;;;;;;19.30;63.78;101621.09;5048964;28;20032;-68
2023/08/13 00:11:09;;;;;;;10.20;2.50;;;;;;;19.32;64.97;101618.34;5055053;28;20147;-68
2023/08/13 00:13:35;;;;;;;6.45;2.28;;;;;;;19.23;62.65;101610.91;5051746;28;20591;-68
2023/08/13 00:16:00;;;;;;;8.90;3.15;;;;;;;19.20;62.83;101611.06;5049359;28;20029;-68
2023/08/13 00:18:26;;;;;;;6.75;2.60;;;;;;;19.07;63.14;101617.25;5048747;28;20040;-68
2023/08/13 00:20:51;;;;;;;7.20;2.22;;;;;;;19.13;63.75;101615.97;5054546;28;20476;-68
2023/08/13 00:23:16;;;;;;;8.43;2.50;;;;;;;19.10;65.19;101611.66;5048001;28;20017;-68
2023/08/13 00:25:42;;;;;;;5.93;2.58;;;;;;;19.01;64.96;101608.72;5050213;28;20027;-68
2023/08/13 00:28:07;;;;;;;8.95;2.65;;;;;;;18.89;64.12;101618.41;5053577;28;20510;-68
2023/08/13 00:30:34;;;;;;;7.32;2.35;;;;;;;18.79;64.49;101611.88;5051402;28;20040;-68
2023/08/13 00:32:59;;;;;;;7.03;2.60;;;;;;;18.75;64.27;101611.22;5052303;28;20435;-68
2023/08/13 00:35:25;;;;;;;9.27;2.35;;;;;;;18.79;64.31;101612.75;5055569;28;20115;-68
2023/08/13 00:37:50;;;;;;;9.43;2.80;;;;;;;18.73;65.16;101614.94;5052884;28;20029;-68
2023/08/13 00:40:15;;;;;;;6.13;2.20;;;;;;;18.69;65.20;101613.41;5056663;28;20028;-68
2023/08/13 00:42:40;;;;;;;10.77;3.08;;;;;;;18.65;65.63;101604.66;5053339;28;20423;-68
2023/08/13 00:45:06;;;;;;;9.10;2.55;;;;;;;18.70;65.63;101613.31;5053956;28;20068;-68
2023/08/13 00:47:32;;;;;;;8.00;2.50;;;;;;;18.70;67.67;101605.28;5053109;28;20625;-68
2023/08/13 00:49:57;;;;;;;11.57;2.95;;;;;;;18.71;65.45;101607.00;5052268;28;20025;-67
2023/08/13 00:52:22;;;;;;;9.80;2.42;;;;;;;18.68;65.07;101601.78;5060604;28;20020;-67
2023/08/13 00:54:48;;;;;;;8.85;2.58;;;;;;;18.57;65.24;101599.78;5051688;28;20040;-68
2023/08/13 00:57:13;;;;;;;9.70;2.85;;;;;;;18.47;66.48;101601.31;5039369;28;20036;-68
2023/08/13 00:59:39;;;;;;;6.13;2.65;;;;;;;18.48;67.17;101602.16;5051332;28;20693;-68
2023/08/13 01:02:04;;;;;;;14.80;3.33;;;;;;;18.54;65.79;101597.28;5051288;28;20488;-68
2023/08/13 01:04:29;;;;;;;10.52;2.35;;;;;;;18.55;66.14;101592.78;5055427;28;20039;-68
2023/08/13 01:06:59;;;;;;;9.52;2.47;;;;;;;18.59;66.18;101600.53;5051259;28;20464;-68
2023/08/13 01:09:37;;;;;;;7.55;2.42;;;;;;;18.61;65.41;101605.81;5053765;28;20395;-68
2023/08/13 01:12:40;;;;;;;8.43;2.83;;;;;;;18.64;65.42;101602.94;5048588;28;20036;-67
2023/08/13 01:15:17;;;;;;;7.18;2.38;;;;;;;18.65;65.38;101614.50;5044595;28;20060;-68
2023/08/13 01:17:44;;;;;;;5.70;1.95;;;;;;;18.58;65.85;101603.31;5052999;28;20032;-68
2023/08/13 01:20:12;;;;;;;7.75;2.70;;;;;;;18.52;66.57;101609.94;5055535;28;20109;-68
2023/08/13 01:22:39;;;;;;;10.40;2.80;;;;;;;18.48;67.28;101603.03;5052040;28;20026;-68
2023/08/13 01:25:07;;;;;;;8.13;2.50;;;;;;;18.38;66.87;101606.38;5056537;28;20029;-68
2023/08/13 01:28:03;;;;;;;6.28;2.83;;;;;;;18.39;66.81;101603.59;5054710;28;20380;-68
2023/08/13 01:30:38;;;;;;;9.18;2.30;;;;;;;18.18;66.90;101604.88;5049475;28;20037;-68
2023/08/13 01:33:07;;;;;;;8.80;2.22;;;;;;;18.13;66.58;101612.31;5055818;28;20170;-68
2023/08/13 01:35:34;;;;;;;11.13;2.50;;;;;;;18.11;67.79;101607.06;5058505;28;20032;-68
2023/08/13 01:38:00;;;;;;;7.22;2.28;;;;;;;18.15;67.67;101611.28;5052954;28;20605;-68
2023/08/13 01:40:26;;;;;;;6.35;2.47;;;;;;;18.17;67.43;101613.84;5050704;28;20020;-68
2023/08/13 01:42:52;;;;;;;9.15;2.40;;;;;;;18.20;68.33;101611.88;5058206;28;20112;-68
2023/08/13 01:45:17;;;;;;;9.85;2.70;;;;;;;18.18;66.88;101611.09;5050163;28;20375;-68
2023/08/13 01:47:43;;;;;;;5.53;2.13;;;;;;;18.07;68.10;101616.22;5051626;28;20033;-68
2023/08/13 01:50:09;;;;;;;7.50;2.08;;;;;;;18.02;68.43;101607.59;5053292;28;20498;-67
2023/08/13 01:52:34;;;;;;;9.60;2.50;;;;;;;18.00;68.08;101610.38;5060058;28;20028;-67
2023/08/13 01:54:59;;;;;;;9.43;2.00;;;;;;;18.16;68.82;101602.28;5050475;28;20021;-67
2023/08/13 01:57:25;;;;;;;7.20;2.10;;;;;;;18.17;67.69;101606.69;5054396;28;20533;-67
2023/08/13 01:59:50;;;;;;;6.40;2.42;;;;;;;18.16;67.38;101622.84;5048853;28;20024;-67
2023/08/13 02:02:15;;;;;;;6.18;2.22;;;;;;;18.17;68.14;101613.84;5041753;28;20430;-67
2023/08/13 02:04:41;;;;;;;5.50;2.13;;;;;;;18.19;68.43;101612.84;5059928;28;20031;-67
2023/08/13 02:07:06;;;;;;;7.68;2.28;;;;;;;18.10;69.01;101605.34;5057211;28;20075;-67
2023/08/13 02:09:31;;;;;;;5.68;1.80;;;;;;;18.07;69.25;101609.06;5054048;28;20090;-67
2023/08/13 02:11:56;;;;;;;8.77;2.60;;;;;;;18.12;68.67;101607.91;5057241;28;20495;-67
2023/08/13 02:14:22;;;;;;;5.75;1.98;;;;;;;18.06;68.41;101607.34;5053838;28;20033;-67
2023/08/13 02:16:47;;;;;;;9.57;2.22;;;;;;;18.05;68.15;101612.78;5055708;28;20495;-68
2023/08/13 02:19:12;;;;;;;8.50;2.10;;;;;;;18.02;68.25;101602.25;5048436;28;20048;-67
2023/08/13 02:21:37;;;;;;;5.72;2.22;;;;;;;18.03;68.93;101609.31;5050322;28;20025;-68
2023/08/13 02:24:03;;;;;;;9.07;1.95;;;;;;;18.02;69.04;101604.94;5056425;28;20474;-67
2023/08/13 02:26:28;;;;;;;11.65;2.45;;;;;;;17.91;69.18;101602.91;5050324;28;20083;-68
2023/08/13 02:28:54;;;;;;;6.00;1.92;;;;;;;17.86;70.39;101599.63;5056450;28;20029;-67
2023/08/13 02:31:19;;;;;;;9.45;2.53;;;;;;;17.90;69.32;101600.28;5048448;28;20112;-67
2023/08/13 02:33:44;;;;;;;7.30;2.38;;;;;;;17.79;69.71;101600.94;5047117;28;20057;-67
2023/08/13 02:36:09;;;;;;;6.97;2.40;;;;;;;17.80;69.60;101602.66;5059655;28;20046;-67
2023/08/13 02:38:35;;;;;;;9.18;2.40;;;;;;;17.74;70.02;101592.31;5036217;28;20037;-67
2023/08/13 02:41:00;;;;;;;8.07;2.35;;;;;;;17.79;69.61;101590.22;5053492;28;20403;-67
2023/08/13 02:43:28;;;;;;;10.63;2.05;;;;;;;17.82;70.28;101590.91;5052626;28;20494;-68
2023/08/13 02:45:53;;;;;;;8.82;2.55;;;;;;;17.78;69.80;101592.06;5051126;28;20305;-67
2023/08/13 02:48:19;;;;;;;5.93;1.92;;;;;;;17.78;70.37;101596.53;5051461;28;20025;-67
2023/08/13 02:50:44;;;;;;;8.27;2.53;;;;;;;17.81;69.52;101597.22;5049098;28;20049;-67
2023/08/13 02:53:09;;;;;;;7.85;2.35;;;;;;;17.69;72.50;101595.22;5052173;28;20090;-68
2023/08/13 02:55:35;;;;;;;6.05;2.10;;;;;;;17.65;70.76;101595.50;5054233;28;20458;-67
2023/08/13 02:58:03;;;;;;;6.55;2.22;;;;;;;17.61;72.06;101592.13;5051566;28;20025;-68
2023/08/13 03:00:29;;;;;;;5.75;2.22;;;;;;;17.65;72.08;101584.78;5054517;28;20025;-68
2023/08/13 03:02:54;;;;;;;5.78;2.38;;;;;;;17.55;71.85;101589.81;5057730;28;20032;-68
2023/08/13 03:05:19;;;;;;;8.05;2.47;;;;;;;17.63;71.21;101584.88;5058571;28;20024;-68
2023/08/13 03:07:44;;;;;;;7.95;2.10;;;;;;;17.49;71.11;101584.81;5057814;28;20085;-68
2023/08/13 03:10:10;;;;;;;7.63;2.47;;;;;;;17.38;71.37;101582.75;5057130;28;20112;-68
2023/08/13 03:12:35;;;;;;;7.38;2.10;;;;;;;17.30;71.92;101587.69;5054150;28;20021;-68
2023/08/13 03:15:00;;;;;;;5.13;2.55;;;;;;;17.49;71.30;101593.69;5066146;28;20029;-68
2023/08/13 03:17:26;;;;;;;6.57;2.03;;;;;;;17.52;70.94;101588.16;5050557;28;20435;-68
2023/08/13 03:19:51;;;;;;;8.95;2.42;;;;;;;17.55;71.06;101587.13;5055975;28;20025;-68
2023/08/13 03:22:16;;;;;;;11.52;2.50;;;;;;;17.42;71.62;101589.63;5050274;28;20067;-68
2023/08/13 03:24:41;;;;;;;9.85;2.08;;;;;;;17.42;72.15;101586.97;5056088;28;20036;-68
2023/08/13 03:27:07;;;;;;;6.80;2.10;;;;;;;17.42;71.73;101591.47;5053776;28;20093;-68
2023/08/13 03:29:32;;;;;;;6.25;2.05;;;;;;;17.20;72.84;101589.97;5052073;28;20033;-68
2023/08/13 03:31:57;;;;;;;9.13;2.40;;;;;;;17.17;73.23;101583.97;5056591;28;20036;-68
2023/08/13 03:34:22;;;;;;;12.52;2.80;;;;;;;17.06;73.75;101588.06;5052433;28;20033;-68
2023/08/13 03:36:48;;;;;;;8.30;2.70;;;;;;;17.04;73.58;101589.13;5054921;28;20021;-68
2023/08/13 03:39:13;;;;;;;4.88;2.22;;;;;;;16.93;74.04;101596.88;5053950;28;20436;-68
2023/08/13 03:41:38;;;;;;;9.10;2.28;;;;;;;16.92;74.09;101595.13;5047509;28;20024;-68
2023/08/13 03:44:03;;;;;;;7.95;2.53;;;;;;;16.89;73.86;101592.66;5055162;28;20029;-68
2023/08/13 03:46:29;;;;;;;7.03;2.22;;;;;;;16.94;73.69;101588.78;5044735;28;20048;-68
2023/08/13 03:48:54;;;;;;;8.68;2.20;;;;;;;16.97;73.85;101585.94;5053101;28;20488;-68
2023/08/13 03:51:19;;;;;;;8.88;2.60;;;;;;;16.88;73.56;101589.13;5052594;28;20036;-68
2023/08/13 03:53:45;;;;;;;8.25;2.25;;;;;;;16.83;73.88;101588.47;5048905;28;20449;-68
2023/08/13 03:56:10;;;;;;;4.90;1.90;;;;;;;16.84;75.52;101590.22;5052403;28;20024;-68
2023/08/13 03:58:35;;;;;;;8.85;2.30;;;;;;;16.89;74.46;101595.31;5048228;28;20031;-67
2023/08/13 04:01:05;;;;;;;4.28;2.03;;;;;;;16.85;76.46;101601.75;5047781;28;20032;-67
2023/08/13 04:03:30;;;;;;;8.32;2.83;;;;;;;16.79;75.07;101597.63;5057082;28;20029;-67
2023/08/13 04:05:56;;;;;;;6.75;2.20;;;;;;;16.74;75.34;101603.22;5052823;28;20385;-67
2023/08/13 04:08:21;;;;;;;5.78;2.15;;;;;;;16.75;76.65;101596.06;5051537;28;20561;-68
2023/08/13 04:10:46;;;;;;;7.95;2.25;;;;;;;16.76;76.68;101601.31;5052492;28;20033;-68
2023/08/13 04:13:11;;;;;;;5.15;2.30;;;;;;;16.86;75.94;101601.66;5055594;28;20028;-68
2023/08/13 04:15:37;;;;;;;7.35;2.20;;;;;;;16.83;75.24;101609.84;5053761;28;20024;-68
2023/08/13 04:18:02;;;;;;;5.88;2.13;;;;;;;16.83;75.16;101608.06;5048643;28;20037;-68
2023/08/13 04:20:28;;;;;;;7.28;2.63;;;;;;;16.83;74.80;101612.50;5049363;28;20103;-68
2023/08/13 04:22:53;;;;;;;9.15;2.42;;;;;;;16.80;75.40;101604.69;5055590;28;20024;-68
2023/08/13 04:25:18;;;;;;;7.97;2.10;;;;;;;16.80;74.96;101604.69;5053532;28;20162;-68
2023/08/13 04:27:43;;;;;;;6.32;2.05;;;;;;;16.85;74.90;101601.75;5053677;28;20503;-68
2023/08/13 04:30:09;;;;;;;4.55;2.00;;;;;;;16.80;75.22;101607.34;5047575;28;20117;-68
2023/08/13 04:32:37;;;;;;;6.85;2.22;;;;;;;16.80;74.73;101604.69;5047669;28;20051;-68
2023/08/13 04:35:03;;;;;;;6.78;2.45;;;;;;;16.77;75.68;101596.81;5044422;28;20025;-68
2023/08/13 04:37:29;;;;;;;6.28;2.40;;;;;;;16.80;75.03;101594.00;5037875;28;20036;-68
2023/08/13 04:39:57;;;;;;;5.72;2.20;;;;;;;16.79;75.16;101609.16;5036991;28;20377;-68
2023/08/13 04:42:22;;;;;;;5.68;2.60;;;;;;;16.76;75.88;101601.31;5044509;28;20025;-68
2023/08/13 04:44:47;;;;;;;6.35;2.17;;;;;;;16.74;75.80;101608.56;5045507;28;20051;-68
2023/08/13 04:47:13;;;;;;;7.78;2.85;;;;;;;16.73;75.95;101603.28;5047408;28;20060;-68
2023/08/13 04:49:38;;;;;;;8.73;2.80;;;;;;;16.76;75.88;101608.47;5049964;28;20020;-68
2023/08/13 04:52:03;;;;;;;7.35;2.65;;;;;;;16.82;75.58;101606.31;5044584;28;20496;-68
2023/08/13 04:54:29;;;;;;;8.18;2.47;;;;;;;16.91;77.20;101612.09;5050054;28;20429;-68
2023/08/13 04:56:54;;;;;;;6.60;2.50;;;;;;;16.96;76.82;101618.06;5046334;28;20545;-68
2023/08/13 04:59:19;;;;;;;6.07;2.30;;;;;;;17.02;78.16;101612.38;5047080;28;20063;-68
2023/08/13 05:01:44;;;;;;;7.35;2.97;;;;;;;17.01;76.05;101610.66;5040559;28;20078;-68
2023/08/13 05:04:10;;;;;;;7.82;2.83;;;;;;;16.99;76.32;101609.88;5049551;28;20415;-68
2023/08/13 05:06:35;;;;;;;7.32;2.70;;;;;;;17.11;75.17;101603.00;5052238;28;20081;-68
2023/08/13 05:09:00;;;;;;;9.88;2.72;;;;;;;17.17;75.56;101608.03;5051588;28;20033;-67
2023/08/13 05:11:26;;;;;;;7.43;2.50;;;;;;;17.21;76.05;101607.75;5050508;28;20033;-67
2023/08/13 05:13:51;;;;;;;5.80;2.17;;;;;;;17.24;74.58;101602.22;5049419;28;20029;-67
2023/08/13 05:16:16;;;;;;;6.00;2.40;;;;;;;17.31;74.50;101602.75;5051884;28;20033;-67
2023/08/13 05:18:41;;;;;;;6.88;2.25;;;;;;;17.33;75.66;101599.03;5051463;28;20545;-68
2023/08/13 05:21:07;;;;;;;7.57;2.25;;;;;;;17.40;75.62;101599.56;5051393;28;20025;-68
2023/08/13 05:23:32;;;;;;;10.20;2.80;;;;;;;17.42;74.51;101594.13;5055784;28;20036;-68
2023/08/13 05:25:58;;;;;;;6.50;2.35;;;;;;;17.43;74.73;101598.53;5054442;28;20024;-68
2023/08/13 05:28:23;;;;;;;10.70;2.70;;;;;;;17.48;74.15;101601.78;5058231;28;20476;-68
2023/08/13 05:30:48;;;;;;;7.18;2.85;;;;;;;17.50;74.17;101610.59;5053736;28;20064;-68
2023/08/13 05:33:14;;;;;;;7.05;2.42;;;;;;;17.47;75.21;101605.41;5056039;28;20028;-68
2023/08/13 05:35:39;;;;;;;10.50;2.80;;;;;;;17.45;74.13;101610.88;5052362;28;20100;-68
2023/08/13 05:38:04;;;;;;;9.10;2.83;;;;;;;17.44;75.39;101613.59;5056581;28;20416;-67
2023/08/13 05:40:33;;;;;;;11.70;2.50;;;;;;;17.51;74.61;101615.00;5058673;28;20028;-67
2023/08/13 05:42:59;;;;;;;5.82;2.40;;;;;;;17.49;74.72;101627.59;5055542;28;20076;-67
2023/08/13 05:45:24;;;;;;;7.57;2.75;;;;;;;17.51;74.72;101620.34;5052860;28;20133;-67
2023/08/13 05:47:50;;;;;;;8.18;2.60;;;;;;;17.54;73.85;101614.84;5053175;28;20040;-67
2023/08/13 05:50:15;;;;;;;7.45;2.72;;;;;;;17.60;74.98;101622.50;5052599;28;20041;-68
2023/08/13 05:52:41;;;;;;;10.25;2.45;;;;;;;17.65;74.30;101622.22;5051057;28;20025;-68
2023/08/13 05:55:06;;;;;;;9.60;2.78;;;;;;;17.75;74.14;101626.13;5053661;28;20145;-68
2023/08/13 05:57:32;;;;;;;4.00;2.30;;;;;;;17.70;75.13;101621.00;5061461;28;20047;-68
2023/08/13 05:59:58;;;;;;;9.15;2.60;;;;;;;17.79;74.35;101622.34;5048975;28;20029;-68
2023/08/13 06:02:23;;;;;;;8.05;3.05;;;;;;;17.85;74.41;101621.97;5046628;28;20030;-68
2023/08/13 06:04:49;;;;;;;5.90;2.47;;;;;;;17.92;73.56;101631.38;5049495;28;20028;-68
2023/08/13 06:07:14;;;;;;;7.10;2.75;;;;;;;17.99;73.31;101623.84;5052715;28;20519;-68
2023/08/13 06:09:39;;;;;;;11.32;3.33;;;;;;;18.07;73.10;101627.78;5053652;28;20029;-68
2023/08/13 06:12:06;;;;;;;8.25;2.30;;;;;;;18.11;72.42;101625.78;5051557;28;20032;-68
2023/08/13 06:14:31;;;;;;;8.98;2.30;;;;;;;18.23;72.30;101621.50;5054026;28;20514;-67
2023/08/13 06:16:56;;;;;;;10.10;3.10;;;;;;;18.23;72.25;101632.22;5050592;28;20033;-68
2023/08/13 06:19:22;;;;;;;6.22;2.38;;;;;;;18.30;71.78;101631.78;5050744;28;20437;-67
2023/08/13 06:21:47;;;;;;;6.93;2.38;;;;;;;18.46;72.03;101633.53;5051067;28;20036;-68
2023/08/13 06:24:12;;;;;;;8.40;2.65;;;;;;;18.66;71.94;101635.00;5052960;28;20033;-68
2023/08/13 06:26:37;;;;;;;8.55;2.45;;;;;;;18.79;70.71;101634.19;5053389;28;20472;-68
2023/08/13 06:29:03;;;;;;;6.25;2.08;;;;;;;18.91;70.31;101629.00;5049728;28;20254;-67
2023/08/13 06:31:28;;;;;;;6.70;2.30;;;;;;;19.00;70.48;101629.28;5049290;28;20510;-68
2023/08/13 06:33:53;;;;;;;5.50;2.45;;;;;;;19.13;69.63;101632.06;5027247;28;20040;-67
2023/08/13 06:36:19;;;;;;;9.35;2.50;;;;;;;19.32;70.94;101632.59;5057187;28;20070;-67
2023/08/13 06:38:44;;;;;;;8.93;2.70;;;;;;;19.32;69.45;101629.06;5048928;28;20044;-66
2023/08/13 06:41:09;;;;;;;5.38;2.20;;;;;;;19.19;68.51;101623.63;5048241;28;20016;-66
2023/08/13 06:43:35;;;;;;;7.97;2.25;;;;;;;19.24;69.34;101629.56;5053383;28;20057;-67
2023/08/13 06:46:01;;;;;;;7.38;2.30;;;;;;;19.41;69.03;101625.78;5050745;28;20057;-67
2023/08/13 06:48:28;;;;;;;7.38;2.83;;;;;;;19.52;68.28;101630.44;5050248;28;20686;-66
2023/08/13 06:50:54;;;;;;;10.35;2.67;;;;;;;19.55;68.24;101633.81;5047459;28;20021;-66
2023/08/13 06:53:20;;;;;;;8.73;2.65;;;;;;;19.60;67.60;101638.91;5051234;28;20468;-67
2023/08/13 06:55:45;;;;;;;8.18;2.10;;;;;;;19.60;67.33;101644.25;5051919;28;20062;-67
2023/08/13 06:58:10;;;;;;;7.72;2.28;;;;;;;19.62;67.81;101631.59;5049553;28;20384;-67
2023/08/13 07:00:37;;;;;;;10.93;2.50;;;;;;;19.74;68.29;101638.00;5046902;28;20029;-67
2023/08/13 07:03:02;;;;;;;7.30;2.20;;;;;;;19.84;67.99;101631.06;5048876;28;20067;-67
2023/08/13 07:05:28;;;;;;;6.15;2.63;;;;;;;19.99;68.71;101629.16;5043341;28;20450;-67
2023/08/13 07:07:53;;;;;;;7.53;2.17;;;;;;;20.10;66.33;101629.31;5044086;28;20029;-67
2023/08/13 07:10:18;;;;;;;11.35;2.55;;;;;;;20.11;66.44;101633.72;5045499;28;20035;-67
2023/08/13 07:12:44;;;;;;;7.20;2.47;;;;;;;20.23;66.63;101623.94;5048176;28;20031;-67
2023/08/13 07:15:09;;;;;;;8.88;2.50;;;;;;;20.35;66.65;101618.59;5046974;28;20078;-67
2023/08/13 07:17:35;;;;;;;8.93;2.33;;;;;;;20.51;66.50;101622.94;5052600;28;20021;-67
2023/08/13 07:20:01;;;;;;;9.43;2.20;;;;;;;20.60;66.50;101619.63;5049552;28;20025;-67
2023/08/13 07:22:26;;;;;;;6.95;2.50;;;;;;;20.83;65.79;101616.16;5055270;28;20399;-67
2023/08/13 07:24:51;;;;;;;9.38;2.13;;;;;;;21.08;64.29;101614.44;5058718;28;20403;-67
2023/08/13 07:27:17;;;;;;;4.18;1.80;;;;;;;21.18;64.42;101611.94;5060953;28;20475;-67
2023/08/13 07:29:42;;;;;;;6.03;2.08;;;;;;;21.32;63.89;101618.06;5050474;28;20036;-67
2023/08/13 07:32:07;;;;;;;6.75;2.28;;;;;;;21.27;62.58;101617.50;5055998;28;20064;-66
2023/08/13 07:34:33;;;;;;;7.65;2.00;;;;;;;21.23;62.70;101623.22;5050420;28;20067;-67
2023/08/13 07:36:58;;;;;;;4.95;1.73;;;;;;;21.36;62.58;101616.00;5059028;28;20468;-66
2023/08/13 07:39:23;;;;;;;5.63;2.00;;;;;;;21.56;63.94;101617.22;5052211;28;20061;-67
2023/08/13 07:41:49;;;;;;;9.55;2.35;;;;;;;21.76;63.17;101618.44;5051742;28;20025;-67
2023/08/13 07:44:15;;;;;;;8.63;2.13;;;;;;;21.82;60.91;101610.78;5050908;28;20025;-67
2023/08/13 07:46:41;;;;;;;9.50;2.38;;;;;;;21.92;62.41;101619.00;5050866;28;20060;-67
2023/08/13 07:49:06;;;;;;;5.07;2.13;;;;;;;22.13;61.78;101619.22;5049916;28;20040;-66
2023/08/13 07:51:31;;;;;;;5.45;2.15;;;;;;;22.24;61.32;101621.94;5046851;28;20507;-66
2023/08/13 07:53:57;;;;;;;8.95;1.92;;;;;;;22.44;60.72;101624.94;5057022;28;20024;-67
2023/08/13 07:56:22;;;;;;;5.40;2.10;;;;;;;22.38;59.80;101623.56;5059779;28;20039;-66
2023/08/13 07:58:48;;;;;;;8.57;1.90;;;;;;;22.33;59.83;101618.53;5046932;28;20464;-66
2023/08/13 08:01:13;;;;;;;10.00;2.40;;;;;;;22.51;60.33;101612.69;5046628;28;20037;-66
2023/08/13 08:03:38;;;;;;;7.30;2.35;;;;;;;22.58;60.27;101616.66;5044238;28;20029;-66
2023/08/13 08:06:04;;;;;;;6.22;2.00;;;;;;;22.89;61.13;101607.84;5046675;28;20056;-66
2023/08/13 08:08:30;;;;;;;9.52;2.72;;;;;;;23.06;58.94;101611.06;5038951;28;20036;-67
2023/08/13 08:10:55;;;;;;;8.23;1.70;;;;;;;23.39;58.60;101611.00;5041207;28;20410;-67
2023/08/13 08:13:21;;;;;;;6.22;1.80;;;;;;;23.46;56.69;101614.06;5056528;28;20036;-67
2023/08/13 08:15:46;;;;;;;11.05;2.13;;;;;;;23.67;58.66;101614.16;5052935;28;20025;-67
2023/08/13 08:18:11;;;;;;;9.05;2.10;;;;;;;23.64;56.23;101617.97;5050187;28;20033;-69
2023/08/13 08:20:37;;;;;;;8.38;1.95;;;;;;;23.60;57.59;101600.28;5046309;28;20598;-66
2023/08/13 08:23:02;;;;;;;8.40;1.90;;;;;;;23.60;55.93;101605.69;5057588;28;20086;-67
2023/08/13 08:25:28;;;;;;;6.15;1.83;;;;;;;23.49;56.98;101615.63;5057978;28;20036;-66
2023/08/13 08:27:53;;;;;;;7.70;2.05;;;;;;;23.62;55.95;101613.66;5051409;28;20438;-66
2023/08/13 08:30:18;;;;;;;7.40;1.90;;;;;;;23.26;56.60;101612.97;5050875;28;20036;-67
2023/08/13 08:32:44;;;;;;;4.22;1.63;;;;;;;23.49;56.75;101613.78;5050333;28;20388;-66
2023/08/13 08:35:09;;;;;;;5.28;1.48;;;;;;;23.59;56.51;101605.78;5051096;28;20028;-67
2023/08/13 08:37:34;;;;;;;8.32;1.70;;;;;;;23.55;55.65;101601.63;5045405;28;20026;-66
2023/08/13 08:40:00;;;;;;;4.38;1.95;;;;;;;23.73;56.46;101613.63;5046247;28;20087;-67
2023/08/13 08:42:26;;;;;;;5.70;1.55;;;;;;;24.03;55.35;101606.66;5052130;28;20072;-67
2023/08/13 08:44:52;;;;;;;5.45;2.08;;;;;;;23.96;53.76;101608.16;5047870;28;20049;-67
2023/08/13 08:47:20;;;;;;;4.93;1.67;;;;;;;24.04;54.71;101602.97;5048008;28;20044;-67
2023/08/13 08:49:46;;;;;;;5.38;1.65;;;;;;;23.78;54.85;101606.03;5045336;28;20025;-67
2023/08/13 08:52:14;;;;;;;5.15;1.63;;;;;;;24.15;54.45;101598.38;5045875;28;20031;-66
2023/08/13 08:54:40;;;;;;;8.38;1.90;;;;;;;24.03;54.37;101606.66;5046468;28;20032;-66
2023/08/13 08:57:05;;;;;;;7.55;2.13;;;;;;;24.17;51.86;101604.50;5053198;28;20036;-67
2023/08/13 08:59:31;;;;;;;8.82;2.13;;;;;;;24.10;53.61;101608.69;5051797;28;20025;-66
2023/08/13 09:01:56;;;;;;;4.05;1.60;;;;;;;24.22;51.54;101598.69;5052195;28;20552;-67
2023/08/13 09:04:22;;;;;;;3.70;1.58;;;;;;;24.39;51.61;101597.28;5064195;28;20396;-66
2023/08/13 09:06:58;;;;;;;6.40;1.73;;;;;;;24.77;53.50;101590.38;5051281;28;20036;-66
2023/08/13 09:09:25;;;;;;;6.50;1.80;;;;;;;25.31;51.79;101595.41;5051262;28;20021;-67
2023/08/13 09:11:54;;;;;;;4.55;1.90;;;;;;;25.54;51.10;101570.78;5052210;28;20028;-66
2023/08/13 09:14:21;;;;;;;8.52;1.98;;;;;;;25.63;48.77;101578.91;5054023;28;20458;-67
2023/08/13 09:16:50;;;;;;;5.72;1.95;;;;;;;25.58;48.22;101577.63;5050575;28;20020;-66
2023/08/13 09:19:17;;;;;;;7.18;2.05;;;;;;;25.27;49.16;101572.31;5047494;28;20049;-67
2023/08/13 09:22:00;;;;;;;7.85;2.05;;;;;;;25.28;50.95;101575.91;5047239;28;20024;-66
2023/08/13 09:24:34;;;;;;;7.20;2.13;;;;;;;25.28;50.92;101576.75;5052333;28;20137;-67
2023/08/13 09:27:00;;;;;;;5.50;1.58;;;;;;;25.42;48.89;101575.50;5048115;28;20132;-66
2023/08/13 09:29:32;;;;;;;7.13;1.90;;;;;;;25.23;48.07;101557.38;5048072;28;20151;-67
2023/08/13 09:31:59;;;;;;;4.95;1.80;;;;;;;25.53;49.40;101566.38;5050468;28;20037;-67
2023/08/13 09:34:26;;;;;;;6.30;2.05;;;;;;;25.65;48.17;101570.69;5049684;28;20024;-66
2023/08/13 09:36:53;;;;;;;7.40;2.22;;;;;;;25.55;47.27;101567.94;5049177;28;20393;-67
2023/08/13 09:39:20;;;;;;;8.60;2.20;;;;;;;25.58;47.61;101561.38;5055526;28;20024;-66
2023/08/13 09:41:48;;;;;;;6.45;1.80;;;;;;;26.00;46.76;101561.97;5051332;28;20033;-68
2023/08/13 09:44:14;;;;;;;8.80;1.88;;;;;;;26.34;46.61;101556.06;5044341;28;20032;-66
2023/08/13 09:46:40;;;;;;;5.93;1.77;;;;;;;26.63;45.28;101553.31;5049649;28;20064;-67
2023/08/13 09:49:11;;;;;;;6.43;1.90;;;;;;;26.93;45.64;101547.59;5050604;28;20036;-67
2023/08/13 09:51:38;;;;;;;6.85;1.85;;;;;;;26.79;44.04;101539.94;5051155;28;20040;-67
2023/08/13 09:54:29;;;;;;;6.82;1.73;;;;;;;27.23;44.36;101537.41;5052977;28;20028;-67
2023/08/13 09:57:03;;;;;;;5.57;1.67;;;;;;;27.37;45.04;101534.22;5050659;28;20249;-67
2023/08/13 09:59:29;;;;;;;5.70;1.80;;;;;;;27.26;42.84;101548.00;5049137;28;20022;-67
2023/08/13 10:01:54;;;;;;;7.85;1.77;;;;;;;27.04;42.82;101538.38;5050843;28;20036;-66
2023/08/13 10:04:21;;;;;;;4.65;1.50;;;;;;;26.83;42.34;101532.38;5052333;28;20384;-67
2023/08/13 10:06:50;;;;;;;8.27;2.00;;;;;;;26.68;43.04;101542.88;5047382;28;20534;-67
2023/08/13 10:09:16;;;;;;;9.98;2.35;;;;;;;26.46;43.77;101533.22;5053761;28;20458;-67
2023/08/13 10:11:41;;;;;;;5.70;1.90;;;;;;;26.32;44.69;101529.09;5048423;28;20023;-67
2023/08/13 10:14:07;;;;;;;4.53;1.67;;;;;;;26.34;43.70;101528.94;5050684;28;20025;-67
2023/08/13 10:16:33;;;;;;;5.68;2.40;;;;;;;26.57;44.37;101534.91;5047875;28;20033;-67
2023/08/13 10:19:00;;;;;;;6.65;1.92;;;;;;;26.54;43.51;101533.34;5048980;28;20091;-67
2023/08/13 10:21:33;;;;;;;6.68;1.98;;;;;;;26.66;45.07;101534.00;5042492;28;20029;-67
2023/08/13 10:24:03;;;;;;;10.27;2.05;;;;;;;27.21;45.33;101529.44;5051956;28;20021;-66
2023/08/13 10:26:29;;;;;;;7.65;2.22;;;;;;;27.32;42.97;101532.94;5052209;28;20033;-66
2023/08/13 10:28:54;;;;;;;6.20;1.92;;;;;;;27.17;43.12;101532.63;5054783;28;20036;-67
2023/08/13 10:31:25;;;;;;;5.30;2.30;;;;;;;27.05;43.46;101533.81;5031159;28;20476;-67
2023/08/13 10:34:02;;;;;;;6.35;2.20;;;;;;;26.76;44.60;101534.81;5051680;28;20035;-67
2023/08/13 10:36:42;;;;;;;6.00;1.75;;;;;;;26.75;44.64;101524.97;5051051;28;20028;-67
2023/08/13 10:39:36;;;;;;;7.15;1.80;;;;;;;26.78;45.58;101530.09;5046509;28;20565;-67
2023/08/13 10:42:04;;;;;;;7.63;2.42;;;;;;;26.25;46.50;101527.97;5048934;28;20039;-67
2023/08/13 10:44:31;;;;;;;6.55;2.22;;;;;;;25.95;45.94;101518.22;5047485;28;20017;-67
2023/08/13 10:46:57;;;;;;;6.57;2.17;;;;;;;26.30;44.89;101525.69;5053741;28;20556;-67
2023/08/13 10:49:25;;;;;;;6.85;2.13;;;;;;;26.75;44.31;101519.53;5049641;28;20116;-67
2023/08/13 10:51:50;;;;;;;6.85;1.95;;;;;;;27.38;44.85;101525.03;5048984;28;20029;-67
2023/08/13 10:54:17;;;;;;;7.13;2.38;;;;;;;27.87;42.17;101516.50;5052940;28;20043;-66
2023/08/13 10:56:42;;;;;;;6.57;1.92;;;;;;;27.97;41.83;101515.38;5057624;28;20518;-67
2023/08/13 10:59:08;;;;;;;6.05;1.80;;;;;;;28.16;40.21;101518.91;5047029;28;20025;-67
2023/08/13 11:01:33;;;;;;;7.50;2.03;;;;;;;28.12;41.00;101512.06;5052917;28;20162;-67
2023/08/13 11:04:03;;;;;;;8.50;2.05;;;;;;;28.65;41.72;101509.19;5049352;28;20070;-66
2023/08/13 11:06:28;;;;;;;5.70;1.80;;;;;;;28.63;39.31;101504.91;5050283;28;20587;-67
2023/08/13 11:08:54;;;;;;;7.55;2.10;;;;;;;28.57;40.92;101506.44;5044733;28;20029;-67
2023/08/13 11:11:20;;;;;;;8.10;1.98;;;;;;;28.46;39.65;101504.00;5050542;28;20043;-67
2023/08/13 11:13:46;;;;;;;4.88;1.80;;;;;;;29.16;41.27;101509.22;5052853;28;20029;-67
2023/08/13 11:16:12;;;;;;;6.05;2.00;;;;;;;29.31;39.69;101503.97;5043044;28;20029;-67
2023/08/13 11:18:38;;;;;;;7.80;2.42;;;;;;;28.92;39.12;101505.38;5050213;28;20036;-66
2023/08/13 11:21:04;;;;;;;5.82;2.00;;;;;;;28.25;38.95;101509.78;5047535;28;20516;-67